Latest Coastal Weather Observations for Evans Head

IDN60701

Issued at 9:21 am EST Sunday 26 April 2015 (issued every 10 minutes, with the page automatically refreshed every 10 minutes)

About coastal observations | Map of coastal stations | Coastal observations for NSW | Marine services | Other Formats
Station Details ID: 058212 Name: EVANS HEAD RAAF BOMBING RANGE AWS Lat: -29.18 Lon: 153.40 Height: 62.5 m
Data from the previous 72 hours. | See also: Recent months at Evans Head
Date/Time
EST
Temp

°C
Wind Pressure Rain
since 9am
mm
Weather Cloud Vis
km
Sea
Height
m
Swell
Dir
 
Speed
knots
Gust
knots
hPa Trend Height
m
Period
s
Dir
26/09:00am 19.3 WNW 11 21 1009.6 - 0.0 - - - - - - -
26/08:30am 18.7 WNW 10 15 1009.5 - 0.0 - - - - - - -
26/08:00am 17.5 WNW 9 14 1009.9 - 0.0 - - - - - - -
26/07:30am 16.5 WNW 10 15 1009.7 - 0.0 - - - - - - -
26/07:00am 15.2 WNW 8 11 1009.5 - 0.0 - - - - - - -
26/06:30am 14.5 WNW 8 11 1009.1 - 0.0 - - - - - - -
26/06:00am 14.8 WNW 8 12 1008.8 - 0.0 - - - - - - -
26/05:30am 15.2 WNW 10 15 1008.5 - 0.0 - - - - - - -
26/05:00am 15.3 WNW 7 11 1008.2 - 0.0 - - - - - - -
26/04:30am 16.3 WNW 9 13 1007.8 - 0.0 - - - - - - -
26/04:00am 16.7 WNW 10 17 1007.6 - 0.0 - - - - - - -
26/03:30am 15.3 WNW 8 12 1007.5 - 0.0 - - - - - - -
26/03:00am 13.8 NNW 6 8 1007.5 - 0.0 - - - - - - -
26/02:30am 14.3 NNW 6 8 1007.4 - 0.0 - - - - - - -
26/02:00am 14.7 NNW 6 9 1007.5 - 0.0 - - - - - - -
26/01:30am 14.8 NNW 5 7 1007.4 - 0.0 - - - - - - -
26/01:00am 15.9 NNW 6 9 1007.6 - 0.0 - - - - - - -
26/12:30am 16.5 NW 7 11 1007.6 - 0.0 - - - - - - -
26/12:00am 17.8 NW 7 11 1007.7 - 0.0 - - - - - - -
 
Date/Time
EST
Temp

°C
Wind Pressure Rain
since 9am
mm
Weather Cloud Vis
km
Sea
Height
m
Swell
Dir
 
Speed
knots
Gust
knots
hPa Trend Height
m
Period
s
Dir
25/11:30pm 17.2 NW 7 11 1008.0 - 0.0 - - - - - - -
25/11:00pm 17.0 NNW 7 11 1008.3 - 0.0 - - - - - - -
25/10:30pm 17.0 NNW 5 7 1008.5 - 0.0 - - - - - - -
25/10:00pm 17.2 NNW 8 11 1008.5 - 0.0 - - - - - - -
25/09:30pm 17.2 NNW 7 9 1008.4 - 0.0 - - - - - - -
25/09:00pm 17.6 NNW 7 10 1008.3 - 0.0 - - - - - - -
25/08:30pm 18.1 N 7 9 1008.4 - 0.0 - - - - - - -
25/08:00pm 18.4 N 8 9 1008.4 - 0.0 - - - - - - -
25/07:30pm 19.0 N 8 11 1008.2 - 0.0 - - - - - - -
25/07:00pm 19.1 N 9 12 1008.0 - 0.0 - - - - - - -
25/06:30pm 19.5 N 8 11 1007.8 - 0.0 - - - - - - -
25/06:00pm 20.1 N 8 9 1007.6 - 0.0 - - - - - - -
25/05:30pm 20.6 N 7 9 1007.3 - 0.0 - - - - - - -
25/05:00pm 21.7 N 6 8 1007.2 - 0.0 - - - - - - -
25/04:30pm 23.2 NE 4 7 1007.1 - 0.0 - - - - - - -
25/04:00pm 24.8 ENE 4 6 1007.0 - 0.0 - - - - - - -
25/03:30pm 25.9 ENE 4 7 1006.9 - 0.0 - - - - - - -
25/03:00pm 28.1 N 3 9 1007.0 - 0.0 - - - - - - -
25/02:30pm 28.9 NW 3 8 1007.1 - 0.0 - - - - - - -
25/02:00pm 28.6 NW 5 10 1007.2 - 0.0 - - - - - - -
25/01:30pm 28.1 NW 4 8 1007.3 - 0.0 - - - - - - -
25/01:00pm 28.2 WNW 4 8 1007.6 - 0.0 - - - - - - -
25/12:30pm 27.3 WNW 5 7 1008.1 - 0.0 - - - - - - -
25/12:00pm 27.7 NW 4 8 1008.4 - 0.0 - - - - - - -
25/11:30am 26.3 WNW 5 9 1008.9 - 0.0 - - - - - - -
25/11:00am 26.0 WNW 6 9 1009.3 - 0.0 - - - - - - -
25/10:30am 25.7 WNW 7 11 1009.7 - 0.0 - - - - - - -
25/10:00am 24.9 WNW 6 9 1010.0 - 0.0 - - - - - - -
25/09:30am 24.5 WNW 6 9 1010.3 - 0.0 - - - - - - -
25/09:00am 22.9 WNW 7 10 1010.2 - 0.0 - - - - - - -
25/08:30am 22.2 NW 6 10 1010.3 - 0.0 - - - - - - -
25/08:00am 21.1 NNW 6 8 1010.0 - 0.0 - - - - - - -
25/07:30am 19.0 NNW 5 7 1009.7 - 0.0 - - - - - - -
25/07:00am 17.8 WNW 7 10 1009.5 - 0.0 - - - - - - -
25/06:30am 15.6 WNW 7 9 1009.2 - 0.0 - - - - - - -
25/06:00am 14.8 NW 5 7 1008.9 - 0.0 - - - - - - -
25/05:30am 14.9 NW 5 7 1008.9 - 0.0 - - - - - - -
25/05:00am 14.8 NW 5 6 1008.6 - 0.0 - - - - - - -
25/04:30am 15.0 NW 6 8 1008.3 - 0.0 - - - - - - -
25/04:00am 15.5 NNW 6 7 1008.1 - 0.0 - - - - - - -
25/03:30am 16.4 NNW 6 7 1008.2 - 0.0 - - - - - - -
25/03:00am 17.8 NW 5 7 1008.2 - 0.0 - - - - - - -
25/02:30am 19.0 WNW 7 11 1008.1 - 0.0 - - - - - - -
25/02:00am 18.5 WNW 5 8 1008.3 - 0.0 - - - - - - -
25/01:30am 17.2 NW 7 9 1008.5 - 0.0 - - - - - - -
25/01:00am 17.3 NW 6 9 1008.5 - 0.0 - - - - - - -
25/12:30am 17.4 NW 7 9 1008.5 - 0.0 - - - - - - -
25/12:00am 16.7 NNW 6 10 1008.7 - 0.0 - - - - - - -
 
Date/Time
EST
Temp

°C
Wind Pressure Rain
since 9am
mm
Weather Cloud Vis
km
Sea
Height
m
Swell
Dir
 
Speed
knots
Gust
knots
hPa Trend Height
m
Period
s
Dir
24/11:30pm 16.7 NNW 7 10 1008.6 - 0.0 - - - - - - -
24/11:00pm 16.6 NNW 6 9 1008.7 - 0.0 - - - - - - -
24/10:30pm 16.9 NNW 6 8 1008.7 - 0.0 - - - - - - -
24/10:00pm 17.1 NNW 7 9 1008.8 - 0.0 - - - - - - -
24/09:30pm 17.3 NNW 7 10 1008.9 - 0.0 - - - - - - -
24/09:00pm 17.9 N 7 9 1008.8 - 0.0 - - - - - - -
24/08:30pm 18.4 N 7 9 1008.7 - 0.0 - - - - - - -
24/08:00pm 19.1 N 9 13 1008.5 - 0.0 - - - - - - -
24/07:30pm 19.1 N 9 12 1008.4 - 0.0 - - - - - - -
24/07:00pm 18.6 N 8 12 1008.2 - 0.0 - - - - - - -
24/06:30pm 19.0 N 7 10 1008.0 - 0.0 - - - - - - -
24/06:00pm 19.7 N 7 9 1007.7 - 0.0 - - - - - - -
24/05:30pm 20.3 N 7 10 1007.5 - 0.0 - - - - - - -
24/05:00pm 21.5 N 6 9 1007.2 - 0.0 - - - - - - -
24/04:30pm 22.7 NNE 5 9 1007.1 - 0.0 - - - - - - -
24/04:00pm 23.6 E 5 7 1007.0 - 0.0 - - - - - - -
24/03:30pm 26.1 N 1 5 1007.0 - 0.0 - - - - - - -
24/03:00pm 27.8 WNW 1 5 1007.0 - 0.0 - - - - - - -
24/02:30pm 27.8 NNW 4 8 1007.2 - 0.0 - - - - - - -
24/02:00pm 27.9 WNW 6 9 1007.4 - 0.0 - - - - - - -
24/01:30pm 27.2 NW 5 9 1007.6 - 0.0 - - - - - - -
24/01:00pm 27.7 NNW 6 9 1007.9 - 0.0 - - - - - - -
24/12:30pm 27.5 NNW 6 9 1008.3 - 0.0 - - - - - - -
24/12:00pm 26.8 NNW 5 8 1008.6 - 0.0 - - - - - - -
24/11:30am 25.1 NW 5 8 1009.1 - 0.0 - - - - - - -
24/11:00am 23.8 WNW 5 7 1009.5 - 0.0 - - - - - - -
24/10:30am 23.0 NW 2 5 1009.8 - 0.0 - - - - - - -
24/10:00am 21.4 N 2 4 1009.8 - 0.0 - - - - - - -
24/09:30am 20.0 NW 4 6 1010.4 - 0.0 - - - - - - -
24/09:00am 19.6 W 5 7 1010.5 - 0.0 - - - - - - -
24/08:30am 19.1 SSW 4 6 1010.5 - 0.0 - - - - - - -
24/08:00am 18.2 NW 1 4 1010.2 - 0.0 - - - - - - -
24/07:30am 16.3 NW 4 7 1010.2 - 0.0 - - - - - - -
24/07:00am 15.1 WNW 5 7 1009.9 - 0.0 - - - - - - -
24/06:30am 14.8 WSW 3 4 1009.9 - 0.0 - - - - - - -
24/06:00am 14.3 NW 4 5 1009.7 - 0.0 - - - - - - -
24/05:30am 14.6 NW 3 4 1009.4 - 0.0 - - - - - - -
24/05:00am 16.1 WSW 5 5 1009.2 - 0.0 - - - - - - -
24/04:30am 16.6 WSW 1 4 1009.1 - 0.0 - - - - - - -
24/04:00am 15.3 NW 1 5 1009.2 - 0.0 - - - - - - -
24/03:30am 16.3 CALM 0 0 1009.3 - 0.0 - - - - - - -
24/03:00am 16.3 CALM 0 0 1009.5 - 0.0 - - - - - - -
24/02:30am 16.4 CALM 0 0 1009.6 - 0.0 - - - - - - -
24/02:00am 16.3 CALM 0 0 1009.7 - 0.0 - - - - - - -
24/01:30am 15.6 NW 5 5 1009.8 - 0.0 - - - - - - -
24/01:00am 15.6 NNW 5 6 1010.1 - 0.0 - - - - - - -
24/12:30am 15.4 NW 6 7 1010.3 - 0.0 - - - - - - -
24/12:00am 15.4 NNW 6 7 1010.2 - 0.0 - - - - - - -
 
Date/Time
EST
Temp

°C
Wind Pressure Rain
since 9am
mm
Weather Cloud Vis
km
Sea
Height
m
Swell
Dir
 
Speed
knots
Gust
knots
hPa Trend Height
m
Period
s
Dir
23/11:30pm 15.6 NNW 5 6 1010.7 - 0.0 - - - - - - -
23/11:00pm 15.9 NNW 5 6 1010.9 - 0.0 - - - - - - -
23/10:30pm 16.4 NNW 5 6 1010.9 - 0.0 - - - - - - -
23/10:00pm 16.9 NNW 5 5 1011.1 - 0.0 - - - - - - -
23/09:30pm 17.3 NNW 4 4 1011.0 - 0.0 - - - - - - -
23/09:00pm 17.7 N 3 4 1010.9 - 0.0 - - - - - - -
23/08:30pm 17.8 NNE 5 5 1010.8 - 0.0 - - - - - - -
23/08:00pm 17.0 N 4 4 1010.7 - 0.0 - - - - - - -
23/07:30pm 16.5 N 5 6 1010.8 - 0.0 - - - - - - -
23/07:00pm 16.6 NNW 4 5 1010.7 - 0.0 - - - - - - -
23/06:30pm 17.1 N 5 6 1010.3 - 0.0 - - - - - - -
23/06:00pm 17.6 N 6 12 1010.0 - 0.0 - - - - - - -
23/05:30pm 18.3 N 5 7 1009.6 - 0.0 - - - - - - -
23/05:00pm 19.7 NE 5 7 1009.4 - 0.0 - - - - - - -
23/04:30pm 20.6 NE 5 7 1009.4 - 0.0 - - - - - - -
23/04:00pm 21.0 ENE 7 11 1009.4 - 0.0 - - - - - - -
23/03:30pm 21.3 ENE 7 11 1009.5 - 0.0 - - - - - - -
23/03:00pm 21.6 E 8 11 1009.5 - 0.0 - - - - - - -
23/02:30pm 21.7 E 8 10 1009.4 - 0.0 - - - - - - -
23/02:00pm 21.5 ESE 7 10 1009.5 - 0.0 - - - - - - -
23/01:30pm 22.6 ESE 8 12 1009.7 - 0.0 - - - - - - -
23/01:00pm 23.6 E 5 9 1010.2 - 0.0 - - - - - - -
23/12:30pm 23.8 W 4 9 1010.8 - 0.0 - - - - - - -
23/12:00pm 23.6 W 4 8 1011.2 - 0.0 - - - - - - -
23/11:30am 24.1 W 4 7 1011.7 - 0.0 - - - - - - -
23/11:00am 22.4 WSW 4 9 1012.1 - 0.0 - - - - - - -
23/10:30am 22.2 W 3 6 1012.3 - 0.0 - - - - - - -
23/10:00am 22.3 WNW 4 7 1012.4 - 0.0 - - - - - - -
23/09:30am 21.2 WNW 4 7 1012.4 - 0.0 - - - - - - -

Other Formats:

Comma delimited format used in spreadsheet applications
http://www.bom.gov.au/fwo/IDN60701/IDN60701.94598.axf

JavaScript Object Notation format (JSON) in row-major order
http://www.bom.gov.au/fwo/IDN60701/IDN60701.94598.json